sensor_id;sensor_type;location;lat;lon;timestamp;pressure;altitude;pressure_sealevel;temperature;humidity
59337;BME280;45115;52.002;4.686;2023-05-14T00:02:03;102170.34;;;12.47;85.56
59337;BME280;45115;52.002;4.686;2023-05-14T00:04:30;102170.59;;;12.44;86.34
59337;BME280;45115;52.002;4.686;2023-05-14T00:06:56;102164.09;;;12.45;85.77
59337;BME280;45115;52.002;4.686;2023-05-14T00:09:23;102166.09;;;12.43;85.52
59337;BME280;45115;52.002;4.686;2023-05-14T00:11:51;102166.97;;;12.43;85.69
59337;BME280;45115;52.002;4.686;2023-05-14T00:14:17;102147.72;;;12.32;85.47
59337;BME280;45115;52.002;4.686;2023-05-14T00:16:44;102163.59;;;12.40;86.10
59337;BME280;45115;52.002;4.686;2023-05-14T00:19:11;102153.47;;;12.29;85.90
59337;BME280;45115;52.002;4.686;2023-05-14T00:21:37;102140.34;;;12.21;86.17
59337;BME280;45115;52.002;4.686;2023-05-14T00:24:04;102149.34;;;12.23;86.45
59337;BME280;45115;52.002;4.686;2023-05-14T00:26:31;102151.97;;;12.25;86.23
59337;BME280;45115;52.002;4.686;2023-05-14T00:28:59;102143.84;;;12.23;86.38
59337;BME280;45115;52.002;4.686;2023-05-14T00:31:25;102145.47;;;12.15;86.49
59337;BME280;45115;52.002;4.686;2023-05-14T00:33:52;102146.22;;;12.17;86.75
59337;BME280;45115;52.002;4.686;2023-05-14T00:36:19;102139.25;;;12.24;85.94
59337;BME280;45115;52.002;4.686;2023-05-14T00:38:45;102132.75;;;12.14;86.55
59337;BME280;45115;52.002;4.686;2023-05-14T00:41:12;102135.25;;;12.17;87.24
59337;BME280;45115;52.002;4.686;2023-05-14T00:43:40;102133.34;;;12.06;87.73
59337;BME280;45115;52.002;4.686;2023-05-14T00:46:08;102131.38;;;12.08;87.26
59337;BME280;45115;52.002;4.686;2023-05-14T00:48:36;102126.00;;;12.07;86.92
59337;BME280;45115;52.002;4.686;2023-05-14T00:51:03;102124.22;;;11.95;87.07
59337;BME280;45115;52.002;4.686;2023-05-14T00:53:31;102114.63;;;12.00;86.45
59337;BME280;45115;52.002;4.686;2023-05-14T00:55:57;102123.59;;;11.91;86.94
59337;BME280;45115;52.002;4.686;2023-05-14T00:58:24;102115.47;;;11.90;88.17
59337;BME280;45115;52.002;4.686;2023-05-14T01:00:51;102130.56;;;11.84;89.67
59337;BME280;45115;52.002;4.686;2023-05-14T01:03:19;102134.31;;;11.83;89.23
59337;BME280;45115;52.002;4.686;2023-05-14T01:05:56;102139.91;;;11.71;90.85
59337;BME280;45115;52.002;4.686;2023-05-14T01:08:31;102127.56;;;11.76;90.48
59337;BME280;45115;52.002;4.686;2023-05-14T01:11:03;102129.16;;;11.68;90.47
59337;BME280;45115;52.002;4.686;2023-05-14T01:13:39;102139.13;;;11.69;90.78
59337;BME280;45115;52.002;4.686;2023-05-14T01:16:11;102137.91;;;11.73;90.41
59337;BME280;45115;52.002;4.686;2023-05-14T01:18:41;102134.06;;;11.75;90.64
59337;BME280;45115;52.002;4.686;2023-05-14T01:21:33;102126.22;;;11.82;90.41
59337;BME280;45115;52.002;4.686;2023-05-14T01:24:01;102134.56;;;11.80;90.53
59337;BME280;45115;52.002;4.686;2023-05-14T01:26:28;102136.69;;;11.77;90.58
59337;BME280;45115;52.002;4.686;2023-05-14T01:28:59;102133.06;;;11.76;90.35
59337;BME280;45115;52.002;4.686;2023-05-14T01:31:27;102131.53;;;11.72;90.46
59337;BME280;45115;52.002;4.686;2023-05-14T01:33:57;102129.78;;;11.71;90.87
59337;BME280;45115;52.002;4.686;2023-05-14T01:36:27;102128.78;;;11.72;90.83
59337;BME280;45115;52.002;4.686;2023-05-14T01:38:55;102124.56;;;11.68;91.01
59337;BME280;45115;52.002;4.686;2023-05-14T01:41:23;102130.34;;;11.64;91.59
59337;BME280;45115;52.002;4.686;2023-05-14T01:43:51;102123.31;;;11.72;91.76
59337;BME280;45115;52.002;4.686;2023-05-14T01:46:18;102121.44;;;11.73;91.42
59337;BME280;45115;52.002;4.686;2023-05-14T01:48:45;102120.94;;;11.68;91.36
59337;BME280;45115;52.002;4.686;2023-05-14T01:51:11;102120.16;;;11.66;92.22
59337;BME280;45115;52.002;4.686;2023-05-14T01:53:41;102103.53;;;11.56;92.17
59337;BME280;45115;52.002;4.686;2023-05-14T01:56:08;102106.03;;;11.59;92.48
59337;BME280;45115;52.002;4.686;2023-05-14T01:58:35;102115.50;;;11.55;91.69
59337;BME280;45115;52.002;4.686;2023-05-14T02:01:01;102104.25;;;11.47;91.79
59337;BME280;45115;52.002;4.686;2023-05-14T02:03:28;102107.75;;;11.49;92.45
59337;BME280;45115;52.002;4.686;2023-05-14T02:05:55;102097.72;;;11.37;92.53
59337;BME280;45115;52.002;4.686;2023-05-14T02:08:21;102100.47;;;11.37;92.32
59337;BME280;45115;52.002;4.686;2023-05-14T02:10:50;102104.91;;;11.27;92.98
59337;BME280;45115;52.002;4.686;2023-05-14T02:13:16;102095.09;;;11.36;93.00
59337;BME280;45115;52.002;4.686;2023-05-14T02:15:43;102090.38;;;11.38;92.34
59337;BME280;45115;52.002;4.686;2023-05-14T02:18:09;102091.25;;;11.38;92.00
59337;BME280;45115;52.002;4.686;2023-05-14T02:20:36;102079.41;;;11.38;92.42
59337;BME280;45115;52.002;4.686;2023-05-14T02:23:04;102086.66;;;11.39;92.76
59337;BME280;45115;52.002;4.686;2023-05-14T02:25:31;102094.47;;;11.32;93.28
59337;BME280;45115;52.002;4.686;2023-05-14T02:27:59;102100.13;;;11.42;91.92
59337;BME280;45115;52.002;4.686;2023-05-14T02:30:25;102101.97;;;11.41;92.60
59337;BME280;45115;52.002;4.686;2023-05-14T02:32:54;102099.34;;;11.40;93.29
59337;BME280;45115;52.002;4.686;2023-05-14T02:35:20;102102.88;;;11.42;92.94
59337;BME280;45115;52.002;4.686;2023-05-14T02:37:47;102098.78;;;11.47;93.80
59337;BME280;45115;52.002;4.686;2023-05-14T02:40:14;102101.22;;;11.39;93.40
59337;BME280;45115;52.002;4.686;2023-05-14T02:42:41;102089.41;;;11.39;93.82
59337;BME280;45115;52.002;4.686;2023-05-14T02:45:09;102090.13;;;11.41;93.54
59337;BME280;45115;52.002;4.686;2023-05-14T02:47:36;102091.59;;;11.34;93.60
59337;BME280;45115;52.002;4.686;2023-05-14T02:50:04;102083.63;;;11.31;93.93
59337;BME280;45115;52.002;4.686;2023-05-14T02:52:31;102088.25;;;11.30;94.37
59337;BME280;45115;52.002;4.686;2023-05-14T02:54:57;102092.09;;;11.27;94.56
59337;BME280;45115;52.002;4.686;2023-05-14T02:57:24;102082.72;;;11.19;95.48
59337;BME280;45115;52.002;4.686;2023-05-14T02:59:50;102084.31;;;11.10;96.36
59337;BME280;45115;52.002;4.686;2023-05-14T03:02:18;102071.16;;;11.03;96.06
59337;BME280;45115;52.002;4.686;2023-05-14T03:04:45;102078.06;;;11.08;95.57
59337;BME280;45115;52.002;4.686;2023-05-14T03:07:12;102075.56;;;11.16;95.56
59337;BME280;45115;52.002;4.686;2023-05-14T03:09:39;102075.69;;;11.15;95.51
59337;BME280;45115;52.002;4.686;2023-05-14T03:12:06;102077.94;;;11.10;96.80
59337;BME280;45115;52.002;4.686;2023-05-14T03:14:33;102076.41;;;11.06;96.58
59337;BME280;45115;52.002;4.686;2023-05-14T03:17:00;102081.78;;;11.07;96.91
59337;BME280;45115;52.002;4.686;2023-05-14T03:19:28;102082.31;;;11.12;97.04
59337;BME280;45115;52.002;4.686;2023-05-14T03:21:54;102068.25;;;11.17;96.57
59337;BME280;45115;52.002;4.686;2023-05-14T03:24:21;102077.69;;;11.13;96.54
59337;BME280;45115;52.002;4.686;2023-05-14T03:26:48;102077.47;;;11.16;97.16
59337;BME280;45115;52.002;4.686;2023-05-14T03:29:15;102069.34;;;11.14;96.52
59337;BME280;45115;52.002;4.686;2023-05-14T03:31:42;102072.38;;;10.99;97.39
59337;BME280;45115;52.002;4.686;2023-05-14T03:34:09;102073.28;;;10.99;97.09
59337;BME280;45115;52.002;4.686;2023-05-14T03:36:37;102070.84;;;10.84;97.40
59337;BME280;45115;52.002;4.686;2023-05-14T03:39:04;102062.59;;;10.84;98.11
59337;BME280;45115;52.002;4.686;2023-05-14T03:41:31;102058.72;;;10.75;98.12
59337;BME280;45115;52.002;4.686;2023-05-14T03:43:57;102066.13;;;10.86;98.29
59337;BME280;45115;52.002;4.686;2023-05-14T03:46:24;102059.28;;;10.91;98.37
59337;BME280;45115;52.002;4.686;2023-05-14T03:48:51;102058.09;;;10.83;98.40
59337;BME280;45115;52.002;4.686;2023-05-14T03:51:17;102059.63;;;10.87;98.47
59337;BME280;45115;52.002;4.686;2023-05-14T03:53:45;102056.63;;;10.90;98.37
59337;BME280;45115;52.002;4.686;2023-05-14T03:56:12;102055.78;;;10.89;98.72
59337;BME280;45115;52.002;4.686;2023-05-14T03:58:39;102047.63;;;10.77;98.36
59337;BME280;45115;52.002;4.686;2023-05-14T04:01:07;102055.47;;;10.81;99.22
59337;BME280;45115;52.002;4.686;2023-05-14T04:03:33;102052.81;;;10.92;98.74
59337;BME280;45115;52.002;4.686;2023-05-14T04:06:00;102047.72;;;10.99;98.68
59337;BME280;45115;52.002;4.686;2023-05-14T04:08:27;102052.56;;;10.95;98.37
59337;BME280;45115;52.002;4.686;2023-05-14T04:10:56;102050.94;;;10.93;98.98
59337;BME280;45115;52.002;4.686;2023-05-14T04:13:23;102052.97;;;11.02;98.16
59337;BME280;45115;52.002;4.686;2023-05-14T04:15:49;102049.75;;;11.08;98.07
59337;BME280;45115;52.002;4.686;2023-05-14T04:18:16;102056.03;;;11.21;98.13
59337;BME280;45115;52.002;4.686;2023-05-14T04:20:44;102058.28;;;11.27;97.58
59337;BME280;45115;52.002;4.686;2023-05-14T04:23:11;102061.16;;;11.25;97.09
59337;BME280;45115;52.002;4.686;2023-05-14T04:25:37;102056.47;;;11.39;97.27
59337;BME280;45115;52.002;4.686;2023-05-14T04:28:05;102065.81;;;11.36;96.74
59337;BME280;45115;52.002;4.686;2023-05-14T04:30:32;102060.94;;;11.40;96.98
59337;BME280;45115;52.002;4.686;2023-05-14T04:32:59;102064.16;;;11.34;96.91
59337;BME280;45115;52.002;4.686;2023-05-14T04:35:25;102057.69;;;11.35;97.05
59337;BME280;45115;52.002;4.686;2023-05-14T04:37:52;102050.59;;;11.43;96.28
59337;BME280;45115;52.002;4.686;2023-05-14T04:40:19;102062.47;;;11.44;96.62
59337;BME280;45115;52.002;4.686;2023-05-14T04:42:46;102063.44;;;11.43;96.51
59337;BME280;45115;52.002;4.686;2023-05-14T04:45:14;102062.47;;;11.55;96.25
59337;BME280;45115;52.002;4.686;2023-05-14T04:47:41;102054.63;;;11.50;96.32
59337;BME280;45115;52.002;4.686;2023-05-14T04:50:09;102062.00;;;11.61;96.99
59337;BME280;45115;52.002;4.686;2023-05-14T04:52:36;102057.19;;;11.75;96.53
59337;BME280;45115;52.002;4.686;2023-05-14T04:55:04;102061.91;;;11.84;95.95
59337;BME280;45115;52.002;4.686;2023-05-14T04:57:30;102064.06;;;11.92;95.27
59337;BME280;45115;52.002;4.686;2023-05-14T04:59:57;102060.19;;;12.05;94.30
59337;BME280;45115;52.002;4.686;2023-05-14T05:02:25;102065.28;;;12.32;92.64
59337;BME280;45115;52.002;4.686;2023-05-14T05:04:52;102063.53;;;12.42;92.07
59337;BME280;45115;52.002;4.686;2023-05-14T05:07:18;102068.03;;;12.43;92.57
59337;BME280;45115;52.002;4.686;2023-05-14T05:09:45;102062.69;;;12.42;92.52
59337;BME280;45115;52.002;4.686;2023-05-14T05:12:12;102068.25;;;12.51;91.70
59337;BME280;45115;52.002;4.686;2023-05-14T05:14:38;102075.88;;;12.59;91.51
59337;BME280;45115;52.002;4.686;2023-05-14T05:17:05;102067.22;;;12.74;90.66
59337;BME280;45115;52.002;4.686;2023-05-14T05:19:33;102075.13;;;12.57;91.26
59337;BME280;45115;52.002;4.686;2023-05-14T05:22:00;102076.50;;;12.51;91.22
59337;BME280;45115;52.002;4.686;2023-05-14T05:24:27;102072.66;;;12.54;91.15
59337;BME280;45115;52.002;4.686;2023-05-14T05:26:54;102073.81;;;12.40;91.95
59337;BME280;45115;52.002;4.686;2023-05-14T05:29:21;102061.41;;;12.46;91.80
59337;BME280;45115;52.002;4.686;2023-05-14T05:31:47;102063.78;;;12.39;92.51
59337;BME280;45115;52.002;4.686;2023-05-14T05:34:14;102066.81;;;12.36;93.37
59337;BME280;45115;52.002;4.686;2023-05-14T05:36:42;102065.66;;;12.50;93.03
59337;BME280;45115;52.002;4.686;2023-05-14T05:39:09;102064.66;;;12.93;91.67
59337;BME280;45115;52.002;4.686;2023-05-14T05:41:36;102074.28;;;13.30;89.24
59337;BME280;45115;52.002;4.686;2023-05-14T05:44:03;102079.06;;;13.49;88.04
59337;BME280;45115;52.002;4.686;2023-05-14T05:46:30;102082.72;;;14.00;85.95
59337;BME280;45115;52.002;4.686;2023-05-14T05:48:56;102080.16;;;13.78;85.95
59337;BME280;45115;52.002;4.686;2023-05-14T05:51:23;102078.72;;;13.22;87.87
59337;BME280;45115;52.002;4.686;2023-05-14T05:53:51;102079.91;;;13.08;88.77
59337;BME280;45115;52.002;4.686;2023-05-14T05:56:18;102074.56;;;12.85;89.42
59337;BME280;45115;52.002;4.686;2023-05-14T05:58:45;102071.28;;;12.37;92.52
59337;BME280;45115;52.002;4.686;2023-05-14T06:01:12;102088.25;;;12.53;92.51
59337;BME280;45115;52.002;4.686;2023-05-14T06:03:38;102087.50;;;12.51;93.01
59337;BME280;45115;52.002;4.686;2023-05-14T06:06:05;102090.75;;;12.56;93.13
59337;BME280;45115;52.002;4.686;2023-05-14T06:08:32;102099.75;;;12.58;92.96
59337;BME280;45115;52.002;4.686;2023-05-14T06:11:00;102095.47;;;12.65;92.66
59337;BME280;45115;52.002;4.686;2023-05-14T06:13:27;102089.28;;;12.52;93.10
59337;BME280;45115;52.002;4.686;2023-05-14T06:15:53;102088.25;;;12.53;93.59
59337;BME280;45115;52.002;4.686;2023-05-14T06:18:20;102085.91;;;12.49;94.23
59337;BME280;45115;52.002;4.686;2023-05-14T06:20:46;102105.50;;;12.66;94.11
59337;BME280;45115;52.002;4.686;2023-05-14T06:23:13;102092.50;;;12.68;93.87
59337;BME280;45115;52.002;4.686;2023-05-14T06:25:40;102095.69;;;12.84;92.90
59337;BME280;45115;52.002;4.686;2023-05-14T06:28:08;102101.78;;;12.88;92.97
59337;BME280;45115;52.002;4.686;2023-05-14T06:30:34;102101.41;;;13.35;91.50
59337;BME280;45115;52.002;4.686;2023-05-14T06:33:01;102095.75;;;13.16;91.97
59337;BME280;45115;52.002;4.686;2023-05-14T06:35:27;102099.63;;;13.45;90.60
59337;BME280;45115;52.002;4.686;2023-05-14T06:37:54;102103.16;;;13.36;91.28
59337;BME280;45115;52.002;4.686;2023-05-14T06:40:21;102113.25;;;13.67;90.15
59337;BME280;45115;52.002;4.686;2023-05-14T06:42:47;102104.47;;;13.73;89.38
59337;BME280;45115;52.002;4.686;2023-05-14T06:45:15;102105.06;;;13.97;87.95
59337;BME280;45115;52.002;4.686;2023-05-14T06:47:42;102101.94;;;13.91;88.02
59337;BME280;45115;52.002;4.686;2023-05-14T06:50:09;102105.44;;;14.13;88.22
59337;BME280;45115;52.002;4.686;2023-05-14T06:52:36;102099.56;;;14.07;88.04
59337;BME280;45115;52.002;4.686;2023-05-14T06:55:04;102097.38;;;14.01;87.41
59337;BME280;45115;52.002;4.686;2023-05-14T06:57:30;102096.66;;;13.99;88.10
59337;BME280;45115;52.002;4.686;2023-05-14T06:59:58;102092.28;;;13.96;87.98
59337;BME280;45115;52.002;4.686;2023-05-14T07:02:26;102094.38;;;13.83;88.52
59337;BME280;45115;52.002;4.686;2023-05-14T07:04:52;102083.81;;;13.88;88.71
59337;BME280;45115;52.002;4.686;2023-05-14T07:07:20;102082.31;;;14.05;88.20
59337;BME280;45115;52.002;4.686;2023-05-14T07:09:47;102085.25;;;14.13;87.20
59337;BME280;45115;52.002;4.686;2023-05-14T07:12:16;102078.19;;;14.20;86.31
59337;BME280;45115;52.002;4.686;2023-05-14T07:14:42;102081.06;;;15.07;84.53
59337;BME280;45115;52.002;4.686;2023-05-14T07:17:20;102077.03;;;15.11;82.46
59337;BME280;45115;52.002;4.686;2023-05-14T07:19:52;102078.63;;;15.23;81.30
59337;BME280;45115;52.002;4.686;2023-05-14T07:22:20;102078.59;;;15.04;82.75
59337;BME280;45115;52.002;4.686;2023-05-14T07:24:46;102076.72;;;15.72;78.96
59337;BME280;45115;52.002;4.686;2023-05-14T07:27:14;102081.63;;;15.01;82.47
59337;BME280;45115;52.002;4.686;2023-05-14T07:29:41;102079.63;;;15.13;82.45
59337;BME280;45115;52.002;4.686;2023-05-14T07:32:08;102088.22;;;16.13;78.93
59337;BME280;45115;52.002;4.686;2023-05-14T07:34:38;102083.69;;;15.76;79.32
59337;BME280;45115;52.002;4.686;2023-05-14T07:37:06;102066.56;;;15.34;81.22
59337;BME280;45115;52.002;4.686;2023-05-14T07:39:33;102072.25;;;16.07;78.04
59337;BME280;45115;52.002;4.686;2023-05-14T07:42:00;102064.16;;;15.96;78.68
59337;BME280;45115;52.002;4.686;2023-05-14T07:44:27;102067.28;;;15.64;80.36
59337;BME280;45115;52.002;4.686;2023-05-14T07:46:53;102067.88;;;15.58;80.38
59337;BME280;45115;52.002;4.686;2023-05-14T07:49:20;102057.53;;;15.60;80.32
59337;BME280;45115;52.002;4.686;2023-05-14T07:51:47;102070.03;;;15.64;80.49
59337;BME280;45115;52.002;4.686;2023-05-14T07:54:15;102071.09;;;15.44;81.16
59337;BME280;45115;52.002;4.686;2023-05-14T07:56:42;102065.09;;;15.78;80.21
59337;BME280;45115;52.002;4.686;2023-05-14T07:59:09;102070.94;;;15.46;80.56
59337;BME280;45115;52.002;4.686;2023-05-14T08:01:41;102070.06;;;15.45;80.82
59337;BME280;45115;52.002;4.686;2023-05-14T08:04:18;102058.59;;;15.40;82.30
59337;BME280;45115;52.002;4.686;2023-05-14T08:06:47;102065.97;;;15.69;80.37
59337;BME280;45115;52.002;4.686;2023-05-14T08:09:15;102066.88;;;16.06;78.57
59337;BME280;45115;52.002;4.686;2023-05-14T08:11:42;102062.84;;;16.64;77.92
59337;BME280;45115;52.002;4.686;2023-05-14T08:14:08;102055.47;;;16.55;76.88
59337;BME280;45115;52.002;4.686;2023-05-14T08:16:35;102054.06;;;17.13;74.96
59337;BME280;45115;52.002;4.686;2023-05-14T08:19:03;102063.47;;;17.38;73.81
59337;BME280;45115;52.002;4.686;2023-05-14T08:21:29;102060.09;;;17.09;73.28
59337;BME280;45115;52.002;4.686;2023-05-14T08:23:56;102060.75;;;16.48;76.37
59337;BME280;45115;52.002;4.686;2023-05-14T08:26:24;102057.66;;;16.79;75.99
59337;BME280;45115;52.002;4.686;2023-05-14T08:28:51;102052.72;;;17.35;73.61
59337;BME280;45115;52.002;4.686;2023-05-14T08:31:18;102051.41;;;17.82;71.18
59337;BME280;45115;52.002;4.686;2023-05-14T08:33:45;102054.09;;;18.25;67.34
59337;BME280;45115;52.002;4.686;2023-05-14T08:36:12;102050.44;;;19.16;64.71
59337;BME280;45115;52.002;4.686;2023-05-14T08:38:39;102050.16;;;19.59;64.43
59337;BME280;45115;52.002;4.686;2023-05-14T08:41:07;102036.25;;;19.35;64.28
59337;BME280;45115;52.002;4.686;2023-05-14T08:43:47;102048.94;;;19.62;64.30
59337;BME280;45115;52.002;4.686;2023-05-14T08:46:16;102045.56;;;20.23;62.21
59337;BME280;45115;52.002;4.686;2023-05-14T08:48:47;102033.44;;;19.91;61.40
59337;BME280;45115;52.002;4.686;2023-05-14T08:51:18;102029.88;;;20.38;60.15
59337;BME280;45115;52.002;4.686;2023-05-14T08:53:46;102037.28;;;19.90;62.81
59337;BME280;45115;52.002;4.686;2023-05-14T08:56:15;102028.09;;;19.82;62.38
59337;BME280;45115;52.002;4.686;2023-05-14T08:58:44;102030.88;;;19.58;63.93
59337;BME280;45115;52.002;4.686;2023-05-14T09:01:11;102027.88;;;19.27;64.66
59337;BME280;45115;52.002;4.686;2023-05-14T09:03:38;102028.41;;;19.07;64.98
59337;BME280;45115;52.002;4.686;2023-05-14T09:06:05;102019.28;;;18.72;66.69
59337;BME280;45115;52.002;4.686;2023-05-14T09:08:33;102020.56;;;18.94;66.04
59337;BME280;45115;52.002;4.686;2023-05-14T09:11:00;102016.44;;;19.70;63.39
59337;BME280;45115;52.002;4.686;2023-05-14T09:13:27;102029.31;;;19.71;62.88
59337;BME280;45115;52.002;4.686;2023-05-14T09:15:56;102005.38;;;19.38;64.89
59337;BME280;45115;52.002;4.686;2023-05-14T09:18:23;102015.03;;;19.66;62.45
59337;BME280;45115;52.002;4.686;2023-05-14T09:20:50;102012.25;;;19.90;62.61
59337;BME280;45115;52.002;4.686;2023-05-14T09:23:17;102009.84;;;19.63;62.69
59337;BME280;45115;52.002;4.686;2023-05-14T09:25:46;102011.09;;;20.32;61.35
59337;BME280;45115;52.002;4.686;2023-05-14T09:28:16;102002.06;;;20.30;59.71
59337;BME280;45115;52.002;4.686;2023-05-14T09:30:46;102001.53;;;20.26;59.78
59337;BME280;45115;52.002;4.686;2023-05-14T09:33:24;102003.22;;;19.80;63.36
59337;BME280;45115;52.002;4.686;2023-05-14T09:35:55;102008.63;;;19.74;61.76
59337;BME280;45115;52.002;4.686;2023-05-14T09:38:27;101996.81;;;19.32;63.86
59337;BME280;45115;52.002;4.686;2023-05-14T09:40:54;101996.28;;;19.76;63.11
59337;BME280;45115;52.002;4.686;2023-05-14T09:43:20;101988.50;;;19.32;63.52
59337;BME280;45115;52.002;4.686;2023-05-14T09:45:47;101989.31;;;19.72;62.80
59337;BME280;45115;52.002;4.686;2023-05-14T09:48:15;101992.66;;;19.36;61.31
59337;BME280;45115;52.002;4.686;2023-05-14T09:50:42;101986.66;;;20.03;61.31
59337;BME280;45115;52.002;4.686;2023-05-14T09:53:09;101990.34;;;19.79;60.06
59337;BME280;45115;52.002;4.686;2023-05-14T09:55:37;101985.94;;;20.09;60.29
59337;BME280;45115;52.002;4.686;2023-05-14T09:58:04;101980.03;;;20.04;60.42
59337;BME280;45115;52.002;4.686;2023-05-14T10:00:31;101978.31;;;19.95;61.73
59337;BME280;45115;52.002;4.686;2023-05-14T10:02:58;101984.84;;;20.34;59.25
59337;BME280;45115;52.002;4.686;2023-05-14T10:05:32;101986.53;;;20.74;58.00
59337;BME280;45115;52.002;4.686;2023-05-14T10:08:02;101976.03;;;20.53;58.76
59337;BME280;45115;52.002;4.686;2023-05-14T10:10:32;101986.88;;;19.85;58.12
59337;BME280;45115;52.002;4.686;2023-05-14T10:13:02;101979.84;;;20.22;61.33
59337;BME280;45115;52.002;4.686;2023-05-14T10:15:36;101974.53;;;20.35;58.73
59337;BME280;45115;52.002;4.686;2023-05-14T10:18:08;101978.88;;;20.68;57.26
59337;BME280;45115;52.002;4.686;2023-05-14T10:20:38;101983.94;;;20.95;56.40
59337;BME280;45115;52.002;4.686;2023-05-14T10:23:05;101978.81;;;20.53;58.88
59337;BME280;45115;52.002;4.686;2023-05-14T10:25:33;101982.69;;;20.75;57.29
59337;BME280;45115;52.002;4.686;2023-05-14T10:28:01;101979.94;;;20.97;55.30
59337;BME280;45115;52.002;4.686;2023-05-14T10:30:28;101963.75;;;20.93;55.80
59337;BME280;45115;52.002;4.686;2023-05-14T10:33:07;101960.13;;;21.38;56.03
59337;BME280;45115;52.002;4.686;2023-05-14T10:35:50;101961.84;;;21.39;56.52
59337;BME280;45115;52.002;4.686;2023-05-14T10:38:21;101958.63;;;21.50;55.42
59337;BME280;45115;52.002;4.686;2023-05-14T10:40:48;101957.75;;;21.49;53.87
59337;BME280;45115;52.002;4.686;2023-05-14T10:43:16;101949.38;;;21.49;55.99
59337;BME280;45115;52.002;4.686;2023-05-14T10:45:43;101942.72;;;21.36;53.99
59337;BME280;45115;52.002;4.686;2023-05-14T10:48:10;101949.53;;;20.88;56.26
59337;BME280;45115;52.002;4.686;2023-05-14T10:50:37;101939.16;;;21.42;52.85
59337;BME280;45115;52.002;4.686;2023-05-14T10:53:09;101946.94;;;21.32;53.50
59337;BME280;45115;52.002;4.686;2023-05-14T10:55:37;101936.09;;;21.37;55.36
59337;BME280;45115;52.002;4.686;2023-05-14T10:58:04;101938.22;;;21.86;52.41
59337;BME280;45115;52.002;4.686;2023-05-14T11:00:32;101938.81;;;21.22;52.11
59337;BME280;45115;52.002;4.686;2023-05-14T11:03:02;101934.00;;;21.68;51.95
59337;BME280;45115;52.002;4.686;2023-05-14T11:05:30;101935.72;;;22.06;51.96
59337;BME280;45115;52.002;4.686;2023-05-14T11:07:57;101926.56;;;22.12;50.31
59337;BME280;45115;52.002;4.686;2023-05-14T11:10:26;101921.25;;;21.59;50.77
59337;BME280;45115;52.002;4.686;2023-05-14T11:12:55;101918.72;;;21.49;51.59
59337;BME280;45115;52.002;4.686;2023-05-14T11:15:23;101924.63;;;21.32;51.46
59337;BME280;45115;52.002;4.686;2023-05-14T11:17:51;101919.78;;;21.63;50.31
59337;BME280;45115;52.002;4.686;2023-05-14T11:20:19;101922.66;;;21.69;52.43
59337;BME280;45115;52.002;4.686;2023-05-14T11:22:47;101912.09;;;21.65;49.81
59337;BME280;45115;52.002;4.686;2023-05-14T11:25:15;101914.41;;;21.76;51.79
59337;BME280;45115;52.002;4.686;2023-05-14T11:27:45;101919.59;;;21.50;52.19
59337;BME280;45115;52.002;4.686;2023-05-14T11:30:13;101911.41;;;21.63;55.72
59337;BME280;45115;52.002;4.686;2023-05-14T11:32:41;101898.19;;;21.79;59.65
59337;BME280;45115;52.002;4.686;2023-05-14T11:35:09;101905.44;;;21.66;50.73
59337;BME280;45115;52.002;4.686;2023-05-14T11:37:35;101896.25;;;21.94;52.13
59337;BME280;45115;52.002;4.686;2023-05-14T11:40:06;101902.03;;;22.07;56.07
59337;BME280;45115;52.002;4.686;2023-05-14T11:42:33;101900.19;;;22.50;54.56
59337;BME280;45115;52.002;4.686;2023-05-14T11:45:02;101903.00;;;22.50;56.56
59337;BME280;45115;52.002;4.686;2023-05-14T11:47:29;101889.63;;;22.60;55.97
59337;BME280;45115;52.002;4.686;2023-05-14T11:49:56;101887.41;;;22.41;55.44
59337;BME280;45115;52.002;4.686;2023-05-14T11:52:24;101890.72;;;23.08;54.04
59337;BME280;45115;52.002;4.686;2023-05-14T11:54:51;101882.56;;;23.06;52.91
59337;BME280;45115;52.002;4.686;2023-05-14T11:57:19;101887.09;;;22.65;55.26
59337;BME280;45115;52.002;4.686;2023-05-14T11:59:47;101894.28;;;22.24;53.78
59337;BME280;45115;52.002;4.686;2023-05-14T12:02:17;101887.38;;;22.91;50.89
59337;BME280;45115;52.002;4.686;2023-05-14T12:04:48;101885.53;;;23.26;48.07
59337;BME280;45115;52.002;4.686;2023-05-14T12:07:15;101877.91;;;22.71;51.70
59337;BME280;45115;52.002;4.686;2023-05-14T12:09:45;101881.81;;;23.40;51.26
59337;BME280;45115;52.002;4.686;2023-05-14T12:12:15;101875.31;;;22.70;51.99
59337;BME280;45115;52.002;4.686;2023-05-14T12:14:43;101871.53;;;22.77;52.73
59337;BME280;45115;52.002;4.686;2023-05-14T12:17:15;101871.13;;;22.59;53.27
59337;BME280;45115;52.002;4.686;2023-05-14T12:19:43;101872.47;;;22.63;52.14
59337;BME280;45115;52.002;4.686;2023-05-14T12:22:11;101867.25;;;22.81;54.11
59337;BME280;45115;52.002;4.686;2023-05-14T12:24:39;101865.97;;;23.26;51.89
59337;BME280;45115;52.002;4.686;2023-05-14T12:27:06;101861.16;;;23.41;52.90
59337;BME280;45115;52.002;4.686;2023-05-14T12:29:35;101860.94;;;23.43;50.76
59337;BME280;45115;52.002;4.686;2023-05-14T12:32:07;101859.88;;;22.95;52.61
59337;BME280;45115;52.002;4.686;2023-05-14T12:34:37;101851.44;;;22.67;52.58
59337;BME280;45115;52.002;4.686;2023-05-14T12:37:04;101859.06;;;22.80;53.19
59337;BME280;45115;52.002;4.686;2023-05-14T12:39:32;101847.78;;;22.67;52.82
59337;BME280;45115;52.002;4.686;2023-05-14T12:42:00;101859.28;;;22.78;50.69
59337;BME280;45115;52.002;4.686;2023-05-14T12:44:27;101853.75;;;22.64;54.16
59337;BME280;45115;52.002;4.686;2023-05-14T12:46:53;101850.69;;;23.01;52.86
59337;BME280;45115;52.002;4.686;2023-05-14T12:49:20;101852.97;;;22.70;54.64
59337;BME280;45115;52.002;4.686;2023-05-14T12:51:48;101847.69;;;22.81;52.88
59337;BME280;45115;52.002;4.686;2023-05-14T12:54:17;101853.44;;;22.73;52.37